Time;durP1;ratioP1;P1;durP2;ratioP2;P2;SDS_P1;SDS_P2;PMS_P1;PMS_P2;Temp;Humidity;BMP_temperature;BMP_pressure;BME280_temperature;BME280_humidity;BME280_pressure;Samples;Min_cycle;Max_cycle;Signal;HPM_P1;HPM_P2
2022/03/12 00:00:08;;;;;;;9.80;6.32;;;;;;;;;;512042;28;1539;-75
2022/03/12 00:00:26;;;;;;;9.93;6.70;;;;;;;;;;511854;29;1392;-75
2022/03/12 00:00:43;;;;;;;8.02;6.20;;;;;;;;;;512054;28;947;-75
2022/03/12 00:01:00;;;;;;;8.52;6.07;;;;;;;;;;511905;29;911;-76
2022/03/12 00:01:15;;;;;;;8.32;6.25;;;;;;;;;;511439;28;729;-75
2022/03/12 00:01:31;;;;;;;8.18;6.47;;;;;;;;;;509456;29;1380;-75
2022/03/12 00:01:47;;;;;;;9.37;6.50;;;;;;;;;;509642;29;848;-76
2022/03/12 00:02:03;;;;;;;9.85;6.30;;;;;;;;;;508756;29;1392;-75
2022/03/12 00:02:18;;;;;;;8.60;6.25;;;;;;;;;;510609;29;1229;-75
2022/03/12 00:02:34;;;;;;;7.97;6.05;;;;;;;;;;511030;28;1485;-76
2022/03/12 00:02:50;;;;;;;8.53;6.07;;;;;;;;;;509740;29;1156;-76
2022/03/12 00:03:05;;;;;;;9.25;6.13;;;;;;;;;;508124;29;1365;-75
2022/03/12 00:03:20;;;;;;;8.93;6.30;;;;;;;;;;508709;29;803;-75
2022/03/12 00:03:36;;;;;;;8.52;6.40;;;;;;;;;;510011;29;746;-76
2022/03/12 00:03:54;;;;;;;7.93;6.13;;;;;;;;;;509845;29;815;-75
2022/03/12 00:04:10;;;;;;;11.43;6.50;;;;;;;;;;507392;29;1454;-75
2022/03/12 00:04:26;;;;;;;11.23;6.68;;;;;;;;;;506696;29;1286;-76
2022/03/12 00:04:43;;;;;;;9.20;6.40;;;;;;;;;;508582;29;1018;-76
2022/03/12 00:04:59;;;;;;;10.30;6.25;;;;;;;;;;511069;29;1007;-75
2022/03/12 00:05:14;;;;;;;10.52;6.35;;;;;;;;;;512242;29;726;-76
2022/03/12 00:05:30;;;;;;;9.97;6.40;;;;;;;;;;509927;29;1171;-75
2022/03/12 00:05:55;;;;;;;8.90;6.47;;;;;;;;;;509789;29;782;-76
2022/03/12 00:06:10;;;;;;;10.23;6.45;;;;;;;;;;509474;29;806;-75
2022/03/12 00:06:26;;;;;;;10.30;6.50;;;;;;;;;;511508;29;754;-76
2022/03/12 00:06:41;;;;;;;9.93;6.70;;;;;;;;;;509827;29;1308;-76
2022/03/12 00:06:58;;;;;;;10.87;6.70;;;;;;;;;;509889;29;1191;-75
2022/03/12 00:07:16;;;;;;;10.77;6.63;;;;;;;;;;509878;29;1457;-76
2022/03/12 00:07:31;;;;;;;9.35;6.30;;;;;;;;;;511405;29;1485;-75
2022/03/12 00:07:47;;;;;;;9.70;6.38;;;;;;;;;;509500;29;1450;-75
2022/03/12 00:08:08;;;;;;;9.57;6.60;;;;;;;;;;511049;29;800;-76
2022/03/12 00:08:44;;;;;;;9.32;6.43;;;;;;;;;;511981;29;844;-76
2022/03/12 00:08:59;;;;;;;8.65;6.25;;;;;;;;;;512017;29;1437;-75
2022/03/12 00:09:14;;;;;;;8.50;6.40;;;;;;;;;;512065;29;1428;-77
2022/03/12 00:09:30;;;;;;;8.33;6.30;;;;;;;;;;512175;29;1304;-75
2022/03/12 00:09:45;;;;;;;8.30;6.40;;;;;;;;;;510209;29;796;-76
2022/03/12 00:10:01;;;;;;;9.55;6.60;;;;;;;;;;510028;29;824;-76
2022/03/12 00:10:21;;;;;;;10.52;6.72;;;;;;;;;;507655;29;1203;-75
2022/03/12 00:10:41;;;;;;;13.13;6.70;;;;;;;;;;507589;29;853;-75
2022/03/12 00:10:56;;;;;;;10.13;6.47;;;;;;;;;;505740;29;1449;-76
2022/03/12 00:11:15;;;;;;;9.53;6.30;;;;;;;;;;509372;29;785;-76
2022/03/12 00:11:34;;;;;;;11.05;6.70;;;;;;;;;;509954;29;840;-76
2022/03/12 00:11:56;;;;;;;9.80;6.75;;;;;;;;;;509966;29;888;-77
2022/03/12 00:12:13;;;;;;;8.40;6.20;;;;;;;;;;510939;29;841;-76
2022/03/12 00:12:32;;;;;;;8.15;6.13;;;;;;;;;;509344;29;1481;-75
2022/03/12 00:12:48;;;;;;;9.52;6.50;;;;;;;;;;509992;29;1262;-75
2022/03/12 00:13:03;;;;;;;9.70;6.30;;;;;;;;;;509665;29;1297;-75
2022/03/12 00:13:21;;;;;;;8.00;6.20;;;;;;;;;;509871;29;1146;-76
2022/03/12 00:13:37;;;;;;;7.68;6.30;;;;;;;;;;509762;29;769;-76
2022/03/12 00:13:53;;;;;;;9.75;6.68;;;;;;;;;;509746;29;1325;-76
2022/03/12 00:14:09;;;;;;;10.13;6.53;;;;;;;;;;509680;29;1348;-76
2022/03/12 00:14:25;;;;;;;9.02;6.20;;;;;;;;;;508782;29;1436;-76
2022/03/12 00:14:47;;;;;;;9.05;6.25;;;;;;;;;;506937;29;1909;-75
2022/03/12 00:15:09;;;;;;;9.70;6.30;;;;;;;;;;509764;29;980;-76
2022/03/12 00:15:24;;;;;;;10.07;6.53;;;;;;;;;;508208;29;2405;-75
2022/03/12 00:15:40;;;;;;;10.53;6.47;;;;;;;;;;504920;29;2541;-76
2022/03/12 00:15:58;;;;;;;10.52;6.50;;;;;;;;;;505629;29;2527;-76
2022/03/12 00:16:18;;;;;;;10.30;6.50;;;;;;;;;;506396;29;2689;-75
2022/03/12 00:16:34;;;;;;;10.10;6.40;;;;;;;;;;505797;29;1416;-76
2022/03/12 00:16:49;;;;;;;8.70;6.32;;;;;;;;;;505948;29;1191;-75
2022/03/12 00:17:06;;;;;;;10.30;6.50;;;;;;;;;;506143;29;833;-75
2022/03/12 00:17:21;;;;;;;10.73;6.60;;;;;;;;;;505392;29;1489;-76
2022/03/12 00:17:48;;;;;;;8.73;6.25;;;;;;;;;;507073;29;1487;-76
2022/03/12 00:18:07;;;;;;;8.57;6.40;;;;;;;;;;510450;29;1062;-75
2022/03/12 00:18:30;;;;;;;10.00;6.40;;;;;;;;;;509326;29;1097;-76
2022/03/12 00:18:52;;;;;;;10.70;6.35;;;;;;;;;;510615;28;922;-76
2022/03/12 00:19:08;;;;;;;9.38;6.50;;;;;;;;;;511958;28;876;-75
2022/03/12 00:19:23;;;;;;;8.30;6.40;;;;;;;;;;513736;28;698;-76
2022/03/12 00:19:42;;;;;;;8.10;6.50;;;;;;;;;;513319;28;829;-76
2022/03/12 00:20:00;;;;;;;8.70;6.40;;;;;;;;;;509609;29;1217;-75
2022/03/12 00:20:18;;;;;;;8.20;6.28;;;;;;;;;;509882;29;1281;-75
2022/03/12 00:20:34;;;;;;;7.68;6.20;;;;;;;;;;509879;29;789;-75
2022/03/12 00:20:50;;;;;;;8.20;6.18;;;;;;;;;;509553;29;773;-75
2022/03/12 00:21:08;;;;;;;9.95;6.45;;;;;;;;;;507914;29;1275;-76
2022/03/12 00:21:24;;;;;;;9.70;6.60;;;;;;;;;;507994;29;1336;-75
2022/03/12 00:21:42;;;;;;;7.80;6.38;;;;;;;;;;508033;29;1030;-75
2022/03/12 00:21:58;;;;;;;8.02;6.35;;;;;;;;;;509904;29;782;-76
2022/03/12 00:22:14;;;;;;;8.10;6.45;;;;;;;;;;511519;29;1384;-76
2022/03/12 00:22:29;;;;;;;9.10;6.27;;;;;;;;;;509475;29;1989;-75
2022/03/12 00:22:47;;;;;;;10.13;6.30;;;;;;;;;;510941;29;1707;-75
2022/03/12 00:23:05;;;;;;;8.27;6.55;;;;;;;;;;508252;29;1371;-75
2022/03/12 00:23:21;;;;;;;14.05;6.65;;;;;;;;;;509951;29;1270;-76
2022/03/12 00:23:37;;;;;;;15.85;6.65;;;;;;;;;;510120;29;1470;-75
2022/03/12 00:23:58;;;;;;;9.97;6.33;;;;;;;;;;510093;29;1244;-75
2022/03/12 00:24:15;;;;;;;10.52;6.55;;;;;;;;;;509942;29;1244;-76
2022/03/12 00:24:31;;;;;;;10.43;6.57;;;;;;;;;;507832;29;1448;-75
2022/03/12 00:24:47;;;;;;;8.87;6.33;;;;;;;;;;507303;29;732;-75
2022/03/12 00:25:10;;;;;;;8.93;6.32;;;;;;;;;;506068;29;1326;-75
2022/03/12 00:25:26;;;;;;;9.50;6.43;;;;;;;;;;506731;29;1603;-75
2022/03/12 00:25:44;;;;;;;9.70;6.67;;;;;;;;;;506326;29;1254;-76
2022/03/12 00:26:00;;;;;;;9.52;6.40;;;;;;;;;;508089;29;841;-75
2022/03/12 00:26:17;;;;;;;10.80;6.45;;;;;;;;;;510112;29;817;-76
2022/03/12 00:26:33;;;;;;;11.25;6.60;;;;;;;;;;509119;28;1214;-75
2022/03/12 00:26:50;;;;;;;10.80;6.70;;;;;;;;;;511825;28;1178;-76
2022/03/12 00:27:06;;;;;;;10.57;6.55;;;;;;;;;;513147;28;1238;-75
2022/03/12 00:27:21;;;;;;;10.05;6.60;;;;;;;;;;511879;28;1253;-76
2022/03/12 00:27:40;;;;;;;9.17;6.53;;;;;;;;;;510675;29;1520;-76
2022/03/12 00:27:55;;;;;;;9.73;6.70;;;;;;;;;;510357;28;848;-75
2022/03/12 00:28:12;;;;;;;9.50;6.73;;;;;;;;;;509494;29;1274;-75
2022/03/12 00:28:27;;;;;;;9.77;6.50;;;;;;;;;;509028;29;1289;-75
2022/03/12 00:28:44;;;;;;;11.43;6.47;;;;;;;;;;506152;29;1624;-75
2022/03/12 00:28:59;;;;;;;10.98;6.45;;;;;;;;;;507108;29;1401;-75
2022/03/12 00:29:15;;;;;;;8.85;6.60;;;;;;;;;;506292;29;1326;-75
2022/03/12 00:29:31;;;;;;;8.73;6.53;;;;;;;;;;509183;29;742;-76
2022/03/12 00:29:48;;;;;;;8.55;6.40;;;;;;;;;;509011;29;856;-76
2022/03/12 00:30:04;;;;;;;8.48;6.43;;;;;;;;;;510918;29;741;-75
2022/03/12 00:30:22;;;;;;;8.70;6.75;;;;;;;;;;510790;29;1190;-75
2022/03/12 00:30:39;;;;;;;8.73;6.80;;;;;;;;;;509879;29;1376;-76
2022/03/12 00:30:55;;;;;;;9.60;6.50;;;;;;;;;;510520;29;1416;-74
2022/03/12 00:31:12;;;;;;;9.70;6.60;;;;;;;;;;508034;29;1471;-75
2022/03/12 00:31:27;;;;;;;9.90;6.60;;;;;;;;;;508687;29;1428;-75
2022/03/12 00:31:45;;;;;;;9.17;6.40;;;;;;;;;;508791;29;1435;-75
2022/03/12 00:32:01;;;;;;;8.30;6.50;;;;;;;;;;509275;29;1412;-75
2022/03/12 00:32:16;;;;;;;8.68;6.38;;;;;;;;;;511353;29;571;-75
2022/03/12 00:32:36;;;;;;;8.80;6.40;;;;;;;;;;511653;28;1520;-75
2022/03/12 00:32:53;;;;;;;8.93;6.40;;;;;;;;;;508870;29;1348;-76
2022/03/12 00:33:08;;;;;;;10.82;6.65;;;;;;;;;;509370;29;1260;-75
2022/03/12 00:33:24;;;;;;;10.50;6.53;;;;;;;;;;509692;29;800;-75
2022/03/12 00:33:39;;;;;;;9.20;6.30;;;;;;;;;;509346;29;1284;-75
2022/03/12 00:33:55;;;;;;;9.87;6.30;;;;;;;;;;507789;29;1191;-75
2022/03/12 00:34:10;;;;;;;9.15;6.55;;;;;;;;;;508035;29;769;-75
2022/03/12 00:34:26;;;;;;;9.73;6.53;;;;;;;;;;508074;29;814;-75
2022/03/12 00:34:41;;;;;;;10.73;6.33;;;;;;;;;;505585;29;1262;-75
2022/03/12 00:34:56;;;;;;;9.70;6.37;;;;;;;;;;506358;29;810;-75
2022/03/12 00:35:14;;;;;;;8.40;6.60;;;;;;;;;;508141;29;750;-75
2022/03/12 00:35:29;;;;;;;8.00;6.60;;;;;;;;;;508548;29;1216;-75
2022/03/12 00:35:47;;;;;;;8.93;6.50;;;;;;;;;;510453;29;635;-75
2022/03/12 00:36:03;;;;;;;9.63;6.78;;;;;;;;;;512039;29;856;-76
2022/03/12 00:36:18;;;;;;;9.27;6.55;;;;;;;;;;512046;29;1020;-75
2022/03/12 00:36:34;;;;;;;8.80;6.32;;;;;;;;;;510933;29;1283;-76
2022/03/12 00:36:49;;;;;;;9.90;6.40;;;;;;;;;;510071;29;1126;-76
2022/03/12 00:37:04;;;;;;;10.17;6.67;;;;;;;;;;510135;29;928;-74
2022/03/12 00:37:20;;;;;;;8.15;6.50;;;;;;;;;;509917;29;1158;-75
2022/03/12 00:37:35;;;;;;;7.70;6.27;;;;;;;;;;510075;29;1529;-76
2022/03/12 00:37:51;;;;;;;9.07;6.60;;;;;;;;;;510798;29;1244;-75
2022/03/12 00:38:06;;;;;;;9.30;6.73;;;;;;;;;;511956;29;844;-75
2022/03/12 00:38:22;;;;;;;9.33;6.67;;;;;;;;;;510046;29;1083;-75
2022/03/12 00:38:37;;;;;;;9.70;6.55;;;;;;;;;;509853;29;1587;-75
2022/03/12 00:38:53;;;;;;;8.50;6.60;;;;;;;;;;508159;29;1194;-75
2022/03/12 00:39:10;;;;;;;8.03;6.40;;;;;;;;;;508146;29;967;-77
2022/03/12 00:39:25;;;;;;;8.82;6.38;;;;;;;;;;508611;29;955;-75
2022/03/12 00:39:44;;;;;;;9.20;6.60;;;;;;;;;;509186;29;836;-75
2022/03/12 00:39:59;;;;;;;8.48;6.43;;;;;;;;;;508167;29;820;-75
2022/03/12 00:40:19;;;;;;;8.67;6.30;;;;;;;;;;509095;29;1410;-75
2022/03/12 00:40:37;;;;;;;10.95;6.40;;;;;;;;;;511660;29;798;-75
2022/03/12 00:40:52;;;;;;;12.35;6.60;;;;;;;;;;513696;28;995;-75
2022/03/12 00:41:08;;;;;;;10.43;6.75;;;;;;;;;;512154;28;1186;-75
2022/03/12 00:41:25;;;;;;;11.63;6.93;;;;;;;;;;510120;29;1242;-74
2022/03/12 00:41:42;;;;;;;10.63;6.60;;;;;;;;;;509848;29;824;-75
2022/03/12 00:41:58;;;;;;;8.52;6.70;;;;;;;;;;510048;29;777;-77
2022/03/12 00:42:13;;;;;;;8.63;6.80;;;;;;;;;;508031;29;1293;-75
2022/03/12 00:42:30;;;;;;;9.05;6.50;;;;;;;;;;507615;29;1964;-75
2022/03/12 00:42:45;;;;;;;9.07;6.30;;;;;;;;;;510088;29;848;-75
2022/03/12 00:43:01;;;;;;;8.85;6.32;;;;;;;;;;508986;29;1269;-77
2022/03/12 00:43:18;;;;;;;10.27;6.43;;;;;;;;;;510951;29;749;-75
2022/03/12 00:43:34;;;;;;;9.65;6.45;;;;;;;;;;511420;29;1292;-76
2022/03/12 00:43:49;;;;;;;7.88;6.47;;;;;;;;;;509774;29;1225;-75
2022/03/12 00:44:06;;;;;;;8.97;7.00;;;;;;;;;;507418;29;1284;-76
2022/03/12 00:44:21;;;;;;;10.63;6.95;;;;;;;;;;506152;29;1397;-75
2022/03/12 00:44:36;;;;;;;10.25;6.70;;;;;;;;;;507878;29;860;-75
2022/03/12 00:44:52;;;;;;;8.67;6.60;;;;;;;;;;506423;29;1123;-75
2022/03/12 00:45:08;;;;;;;9.00;6.60;;;;;;;;;;507911;29;1186;-75
2022/03/12 00:45:23;;;;;;;9.85;6.93;;;;;;;;;;508480;29;1269;-75
2022/03/12 00:45:38;;;;;;;9.65;6.68;;;;;;;;;;507382;29;1245;-75
2022/03/12 00:45:54;;;;;;;9.73;6.30;;;;;;;;;;508080;29;1162;-75
2022/03/12 00:46:09;;;;;;;9.38;6.47;;;;;;;;;;510380;29;927;-75
2022/03/12 00:46:25;;;;;;;9.50;6.70;;;;;;;;;;509798;29;1135;-75
2022/03/12 00:46:40;;;;;;;9.52;6.63;;;;;;;;;;510170;29;956;-75
2022/03/12 00:46:55;;;;;;;9.67;6.70;;;;;;;;;;508033;29;1265;-74
2022/03/12 00:47:11;;;;;;;9.67;6.67;;;;;;;;;;507873;29;714;-75
2022/03/12 00:47:26;;;;;;;9.25;6.47;;;;;;;;;;508089;29;948;-75
2022/03/12 00:47:42;;;;;;;9.43;6.90;;;;;;;;;;510496;29;1628;-75
2022/03/12 00:47:57;;;;;;;9.20;7.00;;;;;;;;;;507990;29;1265;-75
2022/03/12 00:48:13;;;;;;;8.57;6.63;;;;;;;;;;509968;29;789;-75
2022/03/12 00:48:28;;;;;;;8.35;6.50;;;;;;;;;;512182;29;864;-75
2022/03/12 00:48:43;;;;;;;8.30;6.50;;;;;;;;;;508777;29;1559;-75
2022/03/12 00:48:59;;;;;;;9.13;6.70;;;;;;;;;;509954;29;1176;-75
2022/03/12 00:49:14;;;;;;;10.75;6.55;;;;;;;;;;507892;29;1293;-75
2022/03/12 00:49:30;;;;;;;10.43;6.60;;;;;;;;;;507991;29;1400;-75
2022/03/12 00:49:46;;;;;;;10.03;6.87;;;;;;;;;;508884;29;1408;-75
2022/03/12 00:50:02;;;;;;;9.95;6.55;;;;;;;;;;511723;29;789;-75
2022/03/12 00:50:17;;;;;;;9.02;6.50;;;;;;;;;;512024;29;1023;-75
2022/03/12 00:50:33;;;;;;;9.20;6.70;;;;;;;;;;511884;29;836;-75
2022/03/12 00:50:49;;;;;;;9.90;6.72;;;;;;;;;;511869;29;812;-75
2022/03/12 00:51:05;;;;;;;9.65;6.50;;;;;;;;;;512648;28;774;-75
2022/03/12 00:51:20;;;;;;;8.15;6.43;;;;;;;;;;511814;29;1355;-75
2022/03/12 00:51:38;;;;;;;9.50;6.47;;;;;;;;;;510526;29;1218;-76
2022/03/12 00:51:54;;;;;;;10.60;6.35;;;;;;;;;;511680;29;797;-75
2022/03/12 00:52:09;;;;;;;9.70;6.30;;;;;;;;;;511680;29;900;-75
2022/03/12 00:52:24;;;;;;;10.87;6.47;;;;;;;;;;511635;29;1190;-75
2022/03/12 00:52:39;;;;;;;10.47;6.60;;;;;;;;;;510710;29;1425;-75
2022/03/12 00:52:55;;;;;;;9.43;6.70;;;;;;;;;;510600;29;789;-76
2022/03/12 00:53:10;;;;;;;9.68;6.65;;;;;;;;;;511342;29;809;-75
2022/03/12 00:53:25;;;;;;;10.03;6.70;;;;;;;;;;509897;29;1206;-75
2022/03/12 00:53:41;;;;;;;9.03;6.50;;;;;;;;;;509107;29;1159;-75
2022/03/12 00:53:56;;;;;;;9.25;6.70;;;;;;;;;;509715;29;795;-75
2022/03/12 00:54:11;;;;;;;9.83;6.67;;;;;;;;;;509817;29;932;-75
2022/03/12 00:54:27;;;;;;;9.40;6.53;;;;;;;;;;510085;29;1171;-74
2022/03/12 00:54:43;;;;;;;9.40;6.60;;;;;;;;;;509621;29;1259;-75
2022/03/12 00:54:58;;;;;;;8.77;6.43;;;;;;;;;;508031;29;1428;-75
2022/03/12 00:55:13;;;;;;;8.60;6.33;;;;;;;;;;508532;29;773;-75
2022/03/12 00:55:29;;;;;;;8.27;6.30;;;;;;;;;;510371;29;809;-76
2022/03/12 00:55:44;;;;;;;7.80;6.50;;;;;;;;;;512033;29;821;-75
2022/03/12 00:55:59;;;;;;;8.80;6.97;;;;;;;;;;512143;29;797;-75
2022/03/12 00:56:15;;;;;;;12.23;7.25;;;;;;;;;;511676;29;936;-75
2022/03/12 00:56:30;;;;;;;11.33;7.10;;;;;;;;;;510393;29;1273;-75
2022/03/12 00:56:45;;;;;;;9.27;6.90;;;;;;;;;;512180;29;832;-75
2022/03/12 00:57:01;;;;;;;10.55;6.70;;;;;;;;;;510024;29;1183;-75
2022/03/12 00:57:16;;;;;;;10.03;6.80;;;;;;;;;;509613;29;1143;-75
2022/03/12 00:57:31;;;;;;;10.70;6.73;;;;;;;;;;509856;29;1541;-75
2022/03/12 00:57:46;;;;;;;12.48;6.97;;;;;;;;;;509930;29;1313;-75
2022/03/12 00:58:03;;;;;;;10.47;7.00;;;;;;;;;;509845;29;837;-76
2022/03/12 00:58:18;;;;;;;8.57;6.65;;;;;;;;;;509990;29;853;-75
2022/03/12 00:58:35;;;;;;;8.90;6.80;;;;;;;;;;511943;29;1171;-75
2022/03/12 00:58:50;;;;;;;9.50;6.82;;;;;;;;;;512108;29;821;-75
2022/03/12 00:59:06;;;;;;;9.80;6.57;;;;;;;;;;511994;29;1197;-75
2022/03/12 00:59:21;;;;;;;8.93;6.47;;;;;;;;;;512069;29;935;-75
2022/03/12 00:59:38;;;;;;;8.75;6.72;;;;;;;;;;510149;29;1279;-75
2022/03/12 00:59:54;;;;;;;9.30;6.97;;;;;;;;;;511597;29;924;-75
2022/03/12 01:00:16;;;;;;;8.40;6.63;;;;;;;;;;509990;29;1284;-76
2022/03/12 01:00:31;;;;;;;10.35;6.53;;;;;;;;;;509768;29;1066;-76
2022/03/12 01:00:47;;;;;;;10.23;6.50;;;;;;;;;;507804;29;1329;-75
2022/03/12 01:01:03;;;;;;;8.77;6.80;;;;;;;;;;507910;29;1179;-76
2022/03/12 01:01:18;;;;;;;9.25;6.90;;;;;;;;;;507717;29;927;-75
2022/03/12 01:01:34;;;;;;;10.63;7.20;;;;;;;;;;509539;29;746;-75
2022/03/12 01:01:50;;;;;;;10.68;7.10;;;;;;;;;;509775;29;1253;-75
2022/03/12 01:02:06;;;;;;;9.52;6.55;;;;;;;;;;511199;29;794;-75
2022/03/12 01:02:21;;;;;;;9.17;6.70;;;;;;;;;;509416;29;1348;-75
2022/03/12 01:02:36;;;;;;;10.03;6.93;;;;;;;;;;508851;29;1533;-75
2022/03/12 01:02:53;;;;;;;10.45;7.00;;;;;;;;;;508596;29;1194;-75
2022/03/12 01:03:08;;;;;;;9.35;6.72;;;;;;;;;;510078;29;830;-76
2022/03/12 01:03:24;;;;;;;8.60;6.63;;;;;;;;;;511603;29;1218;-75
2022/03/12 01:03:40;;;;;;;9.07;6.70;;;;;;;;;;508688;29;1312;-76
2022/03/12 01:03:55;;;;;;;9.90;6.70;;;;;;;;;;507651;29;936;-76
2022/03/12 01:04:10;;;;;;;9.40;6.57;;;;;;;;;;507696;29;1099;-74
2022/03/12 01:04:26;;;;;;;9.60;6.70;;;;;;;;;;507578;29;1358;-75
2022/03/12 01:04:42;;;;;;;10.00;6.47;;;;;;;;;;509247;28;762;-75
2022/03/12 01:04:57;;;;;;;9.63;6.65;;;;;;;;;;511707;29;1379;-74
2022/03/12 01:05:18;;;;;;;9.33;7.00;;;;;;;;;;512061;29;785;-74
2022/03/12 01:05:48;;;;;;;9.05;7.00;;;;;;;;;;512890;28;1108;-74
2022/03/12 01:06:04;;;;;;;10.52;6.88;;;;;;;;;;513343;28;1403;-76
2022/03/12 01:06:20;;;;;;;9.38;6.88;;;;;;;;;;512313;28;1509;-76
2022/03/12 01:06:37;;;;;;;9.68;6.90;;;;;;;;;;511698;29;737;-74
2022/03/12 01:06:52;;;;;;;10.85;6.90;;;;;;;;;;511301;29;1446;-74
2022/03/12 01:07:10;;;;;;;9.53;6.60;;;;;;;;;;512017;29;1084;-75
2022/03/12 01:07:25;;;;;;;9.43;6.80;;;;;;;;;;509951;29;1355;-75
2022/03/12 01:07:41;;;;;;;10.10;7.07;;;;;;;;;;511100;29;1501;-74
2022/03/12 01:07:57;;;;;;;10.35;7.13;;;;;;;;;;508106;29;1236;-75
2022/03/12 01:08:12;;;;;;;9.27;6.97;;;;;;;;;;509604;29;848;-75
2022/03/12 01:08:31;;;;;;;8.88;6.72;;;;;;;;;;510125;29;769;-75
2022/03/12 01:08:47;;;;;;;9.30;7.00;;;;;;;;;;508787;29;868;-74
2022/03/12 01:09:03;;;;;;;9.70;7.30;;;;;;;;;;508082;29;1256;-76
2022/03/12 01:09:18;;;;;;;9.75;6.90;;;;;;;;;;509022;29;766;-77
2022/03/12 01:09:34;;;;;;;9.27;6.77;;;;;;;;;;510008;29;956;-75
2022/03/12 01:09:49;;;;;;;9.43;6.82;;;;;;;;;;511962;28;750;-75
2022/03/12 01:10:05;;;;;;;10.07;6.90;;;;;;;;;;513855;28;713;-76
2022/03/12 01:10:20;;;;;;;8.95;6.45;;;;;;;;;;513946;28;729;-76
2022/03/12 01:10:35;;;;;;;8.37;6.33;;;;;;;;;;513889;28;951;-75
2022/03/12 01:10:52;;;;;;;8.87;6.70;;;;;;;;;;513779;28;1296;-75
2022/03/12 01:11:09;;;;;;;8.57;6.60;;;;;;;;;;516414;28;1042;-75
2022/03/12 01:11:24;;;;;;;9.73;6.55;;;;;;;;;;515904;28;749;-75
2022/03/12 01:11:40;;;;;;;9.60;6.57;;;;;;;;;;513716;28;1162;-75
2022/03/12 01:11:56;;;;;;;9.67;6.60;;;;;;;;;;514241;28;1202;-76
2022/03/12 01:12:12;;;;;;;9.02;6.50;;;;;;;;;;513396;28;1154;-75
2022/03/12 01:12:27;;;;;;;9.38;6.53;;;;;;;;;;513513;28;718;-75
2022/03/12 01:12:43;;;;;;;9.83;6.47;;;;;;;;;;512843;28;1475;-75
2022/03/12 01:12:58;;;;;;;9.13;6.55;;;;;;;;;;513415;28;829;-75
2022/03/12 01:13:14;;;;;;;9.25;6.63;;;;;;;;;;513636;28;817;-75
2022/03/12 01:13:30;;;;;;;9.13;6.50;;;;;;;;;;513726;28;979;-75
2022/03/12 01:13:45;;;;;;;9.15;6.72;;;;;;;;;;515437;28;797;-75
2022/03/12 01:14:01;;;;;;;10.53;7.17;;;;;;;;;;513804;28;1380;-75
2022/03/12 01:14:16;;;;;;;9.98;6.72;;;;;;;;;;513640;28;1563;-75
2022/03/12 01:14:32;;;;;;;10.40;6.43;;;;;;;;;;511981;28;753;-75
2022/03/12 01:14:47;;;;;;;10.10;6.47;;;;;;;;;;512494;28;817;-76
2022/03/12 01:15:05;;;;;;;9.03;6.47;;;;;;;;;;513469;28;734;-75
2022/03/12 01:15:20;;;;;;;9.40;6.70;;;;;;;;;;511527;29;1225;-76
2022/03/12 01:15:36;;;;;;;9.60;6.93;;;;;;;;;;511818;29;845;-75
2022/03/12 01:15:51;;;;;;;10.07;6.93;;;;;;;;;;512161;28;1361;-75
2022/03/12 01:16:08;;;;;;;9.40;6.60;;;;;;;;;;514024;28;1552;-76
2022/03/12 01:16:23;;;;;;;8.38;6.47;;;;;;;;;;515589;28;895;-76
2022/03/12 01:16:38;;;;;;;8.77;6.90;;;;;;;;;;513692;28;1269;-76
2022/03/12 01:16:57;;;;;;;8.00;6.50;;;;;;;;;;511441;29;1285;-76
2022/03/12 01:17:12;;;;;;;7.95;6.30;;;;;;;;;;511708;29;852;-76
2022/03/12 01:17:28;;;;;;;8.40;6.50;;;;;;;;;;511897;29;718;-76
2022/03/12 01:17:43;;;;;;;8.13;6.53;;;;;;;;;;509673;29;1479;-75
2022/03/12 01:17:59;;;;;;;8.83;6.50;;;;;;;;;;511820;29;1394;-76
2022/03/12 01:18:20;;;;;;;8.50;6.40;;;;;;;;;;511853;29;813;-76
2022/03/12 01:18:39;;;;;;;8.07;6.50;;;;;;;;;;512912;28;948;-76
2022/03/12 01:18:54;;;;;;;9.35;6.55;;;;;;;;;;513808;28;816;-76
2022/03/12 01:19:09;;;;;;;11.18;6.50;;;;;;;;;;513508;28;825;-76
2022/03/12 01:19:25;;;;;;;11.30;6.90;;;;;;;;;;513846;28;657;-76
2022/03/12 01:19:41;;;;;;;9.80;7.05;;;;;;;;;;514685;28;848;-76
2022/03/12 01:19:56;;;;;;;8.83;6.67;;;;;;;;;;515352;28;924;-75
2022/03/12 01:20:11;;;;;;;9.00;6.40;;;;;;;;;;513730;28;1169;-76
2022/03/12 01:20:27;;;;;;;10.45;6.70;;;;;;;;;;511735;29;1276;-75
2022/03/12 01:20:43;;;;;;;10.10;6.60;;;;;;;;;;509849;29;1306;-75
2022/03/12 01:21:11;;;;;;;9.60;6.43;;;;;;;;;;509722;29;927;-75
2022/03/12 01:21:26;;;;;;;8.20;6.70;;;;;;;;;;509756;29;968;-75
2022/03/12 01:21:42;;;;;;;8.27;6.60;;;;;;;;;;509812;29;833;-75
2022/03/12 01:21:57;;;;;;;9.73;6.60;;;;;;;;;;507775;29;1160;-75
2022/03/12 01:22:17;;;;;;;10.25;6.78;;;;;;;;;;509960;29;1225;-75
2022/03/12 01:22:35;;;;;;;9.15;6.70;;;;;;;;;;512144;28;1915;-76
2022/03/12 01:22:51;;;;;;;8.02;6.30;;;;;;;;;;514746;28;1020;-75
2022/03/12 01:23:07;;;;;;;8.52;6.45;;;;;;;;;;515106;28;797;-76
2022/03/12 01:23:25;;;;;;;7.95;6.45;;;;;;;;;;513577;28;986;-75
2022/03/12 01:23:40;;;;;;;7.68;6.18;;;;;;;;;;514885;28;769;-76
2022/03/12 01:23:55;;;;;;;8.37;6.70;;;;;;;;;;515493;28;1249;-76
2022/03/12 01:24:11;;;;;;;9.93;7.00;;;;;;;;;;513557;28;1224;-76
2022/03/12 01:24:26;;;;;;;9.88;6.85;;;;;;;;;;511670;28;1155;-76
2022/03/12 01:24:42;;;;;;;9.80;6.80;;;;;;;;;;511402;29;757;-76
2022/03/12 01:24:57;;;;;;;9.60;6.87;;;;;;;;;;509648;29;1174;-75
2022/03/12 01:25:12;;;;;;;9.85;6.68;;;;;;;;;;507745;29;1177;-75
2022/03/12 01:25:28;;;;;;;9.50;6.57;;;;;;;;;;507497;29;1207;-76
2022/03/12 01:25:45;;;;;;;8.05;6.57;;;;;;;;;;507844;29;1278;-76
2022/03/12 01:26:00;;;;;;;8.63;6.63;;;;;;;;;;508459;29;923;-75
2022/03/12 01:26:18;;;;;;;9.03;6.50;;;;;;;;;;510398;29;908;-75
2022/03/12 01:26:36;;;;;;;9.45;6.78;;;;;;;;;;510604;29;1312;-75
2022/03/12 01:26:52;;;;;;;8.70;6.93;;;;;;;;;;511368;29;841;-76
2022/03/12 01:27:07;;;;;;;11.52;7.18;;;;;;;;;;511949;29;781;-76
2022/03/12 01:27:23;;;;;;;12.23;7.37;;;;;;;;;;512399;28;1350;-76
2022/03/12 01:27:38;;;;;;;10.68;7.10;;;;;;;;;;512484;28;1508;-75
2022/03/12 01:27:53;;;;;;;10.53;6.90;;;;;;;;;;513783;28;1260;-76
2022/03/12 01:28:10;;;;;;;9.50;6.90;;;;;;;;;;511622;29;1273;-76
2022/03/12 01:28:26;;;;;;;10.38;6.97;;;;;;;;;;511319;29;952;-76
2022/03/12 01:28:41;;;;;;;10.15;6.97;;;;;;;;;;511378;29;892;-75
2022/03/12 01:28:57;;;;;;;9.90;6.90;;;;;;;;;;511721;29;762;-75
2022/03/12 01:29:12;;;;;;;11.00;7.00;;;;;;;;;;511789;29;777;-76
2022/03/12 01:29:27;;;;;;;9.93;6.73;;;;;;;;;;511929;28;947;-76
2022/03/12 01:29:43;;;;;;;8.88;6.57;;;;;;;;;;513431;28;1161;-75
2022/03/12 01:29:58;;;;;;;10.40;6.93;;;;;;;;;;513678;28;737;-75
2022/03/12 01:30:13;;;;;;;11.43;6.87;;;;;;;;;;513686;28;734;-75
2022/03/12 01:30:30;;;;;;;9.60;6.63;;;;;;;;;;513796;28;801;-76
2022/03/12 01:30:46;;;;;;;9.60;6.80;;;;;;;;;;515316;28;1099;-76
2022/03/12 01:31:01;;;;;;;10.48;6.78;;;;;;;;;;513565;28;1197;-75
2022/03/12 01:31:18;;;;;;;9.60;6.60;;;;;;;;;;511450;29;1297;-76
2022/03/12 01:31:36;;;;;;;9.73;6.40;;;;;;;;;;511315;29;786;-76
2022/03/12 01:31:51;;;;;;;9.55;6.50;;;;;;;;;;511946;29;793;-75
2022/03/12 01:32:08;;;;;;;8.97;6.60;;;;;;;;;;511842;29;988;-76
2022/03/12 01:32:23;;;;;;;8.90;6.60;;;;;;;;;;511543;29;1136;-76
2022/03/12 01:32:38;;;;;;;8.60;6.47;;;;;;;;;;511987;28;1574;-76
2022/03/12 01:32:54;;;;;;;8.97;6.37;;;;;;;;;;511486;29;1318;-76
2022/03/12 01:33:10;;;;;;;8.73;6.38;;;;;;;;;;510830;29;1286;-75
2022/03/12 01:33:25;;;;;;;8.95;6.60;;;;;;;;;;511906;29;877;-76
2022/03/12 01:33:41;;;;;;;9.70;6.80;;;;;;;;;;511420;29;916;-76
2022/03/12 01:33:56;;;;;;;8.40;6.67;;;;;;;;;;509642;29;1261;-75
2022/03/12 01:34:11;;;;;;;8.33;6.73;;;;;;;;;;509755;29;797;-76
2022/03/12 01:34:27;;;;;;;9.75;6.68;;;;;;;;;;509823;29;1409;-76
2022/03/12 01:34:42;;;;;;;9.80;6.60;;;;;;;;;;508596;29;1489;-75
2022/03/12 01:34:57;;;;;;;10.00;6.70;;;;;;;;;;511793;29;793;-76
2022/03/12 01:35:12;;;;;;;10.23;6.78;;;;;;;;;;510038;29;1441;-76
2022/03/12 01:35:28;;;;;;;8.73;6.50;;;;;;;;;;509942;29;1222;-76
2022/03/12 01:35:43;;;;;;;8.23;6.37;;;;;;;;;;509882;29;920;-75
2022/03/12 01:35:58;;;;;;;9.87;6.70;;;;;;;;;;511978;29;1042;-75
2022/03/12 01:36:14;;;;;;;9.55;6.82;;;;;;;;;;513851;28;1404;-75
2022/03/12 01:36:30;;;;;;;8.60;6.47;;;;;;;;;;514018;28;811;-75
2022/03/12 01:36:46;;;;;;;10.27;6.38;;;;;;;;;;513875;28;1013;-76
2022/03/12 01:37:01;;;;;;;11.63;6.57;;;;;;;;;;513808;28;1288;-75
2022/03/12 01:37:19;;;;;;;11.20;6.60;;;;;;;;;;511667;28;1232;-75
2022/03/12 01:37:34;;;;;;;9.73;6.53;;;;;;;;;;511745;28;1519;-76
2022/03/12 01:37:50;;;;;;;8.70;6.50;;;;;;;;;;511369;29;1139;-75
2022/03/12 01:38:06;;;;;;;9.03;6.40;;;;;;;;;;511980;28;924;-76
2022/03/12 01:38:30;;;;;;;8.93;6.53;;;;;;;;;;512099;29;958;-76
2022/03/12 01:38:50;;;;;;;9.00;6.72;;;;;;;;;;511830;29;1255;-76
2022/03/12 01:39:05;;;;;;;9.35;6.53;;;;;;;;;;512004;29;1026;-76
2022/03/12 01:39:21;;;;;;;8.93;6.67;;;;;;;;;;509743;29;1298;-75
2022/03/12 01:39:36;;;;;;;9.93;6.70;;;;;;;;;;510050;28;1186;-76
2022/03/12 01:39:51;;;;;;;9.47;6.57;;;;;;;;;;511079;28;1151;-75
2022/03/12 01:40:07;;;;;;;9.73;6.80;;;;;;;;;;511909;29;741;-76
2022/03/12 01:40:22;;;;;;;9.68;6.70;;;;;;;;;;512061;29;940;-75
2022/03/12 01:40:38;;;;;;;8.53;6.40;;;;;;;;;;510086;29;1170;-76
2022/03/12 01:40:53;;;;;;;8.52;6.50;;;;;;;;;;507940;29;1301;-76
2022/03/12 01:41:10;;;;;;;9.03;6.60;;;;;;;;;;506162;29;1254;-76
2022/03/12 01:41:28;;;;;;;9.40;6.40;;;;;;;;;;507868;29;1446;-75